sensor_id;sensor_type;location;lat;lon;timestamp;P1;durP1;ratioP1;P2;durP2;ratioP2
2388;SDS011;1205;47.984;7.668;2024-03-07T00:00:12;11.73;;;9.57;;
2388;SDS011;1205;47.984;7.668;2024-03-07T00:02:45;12.50;;;9.87;;
2388;SDS011;1205;47.984;7.668;2024-03-07T00:05:13;10.43;;;9.43;;
2388;SDS011;1205;47.984;7.668;2024-03-07T00:07:39;9.97;;;9.00;;
2388;SDS011;1205;47.984;7.668;2024-03-07T00:10:06;11.53;;;9.20;;
2388;SDS011;1205;47.984;7.668;2024-03-07T00:12:35;12.43;;;8.90;;
2388;SDS011;1205;47.984;7.668;2024-03-07T00:15:03;15.30;;;10.57;;
2388;SDS011;1205;47.984;7.668;2024-03-07T00:17:30;10.77;;;9.10;;
2388;SDS011;1205;47.984;7.668;2024-03-07T00:19:56;13.80;;;10.60;;
2388;SDS011;1205;47.984;7.668;2024-03-07T00:22:22;13.47;;;11.10;;
2388;SDS011;1205;47.984;7.668;2024-03-07T00:24:48;13.23;;;9.80;;
2388;SDS011;1205;47.984;7.668;2024-03-07T00:27:13;12.63;;;11.30;;
2388;SDS011;1205;47.984;7.668;2024-03-07T00:29:39;14.30;;;11.10;;
2388;SDS011;1205;47.984;7.668;2024-03-07T00:32:05;17.30;;;12.10;;
2388;SDS011;1205;47.984;7.668;2024-03-07T00:34:32;15.57;;;11.07;;
2388;SDS011;1205;47.984;7.668;2024-03-07T00:36:58;18.40;;;12.20;;
2388;SDS011;1205;47.984;7.668;2024-03-07T00:39:24;14.90;;;12.13;;
2388;SDS011;1205;47.984;7.668;2024-03-07T00:41:50;15.80;;;12.70;;
2388;SDS011;1205;47.984;7.668;2024-03-07T00:44:16;16.60;;;12.37;;
2388;SDS011;1205;47.984;7.668;2024-03-07T00:46:42;17.33;;;13.47;;
2388;SDS011;1205;47.984;7.668;2024-03-07T00:49:07;16.30;;;11.83;;
2388;SDS011;1205;47.984;7.668;2024-03-07T00:51:33;21.37;;;14.30;;
2388;SDS011;1205;47.984;7.668;2024-03-07T00:53:59;20.07;;;14.77;;
2388;SDS011;1205;47.984;7.668;2024-03-07T00:56:24;20.20;;;14.70;;
2388;SDS011;1205;47.984;7.668;2024-03-07T00:58:52;23.00;;;16.43;;
2388;SDS011;1205;47.984;7.668;2024-03-07T01:01:18;25.70;;;17.03;;
2388;SDS011;1205;47.984;7.668;2024-03-07T01:03:44;23.53;;;16.67;;
2388;SDS011;1205;47.984;7.668;2024-03-07T01:06:10;22.00;;;17.33;;
2388;SDS011;1205;47.984;7.668;2024-03-07T01:08:36;24.43;;;17.27;;
2388;SDS011;1205;47.984;7.668;2024-03-07T01:11:03;22.93;;;15.90;;
2388;SDS011;1205;47.984;7.668;2024-03-07T01:13:37;20.63;;;15.47;;
2388;SDS011;1205;47.984;7.668;2024-03-07T01:16:06;23.77;;;15.27;;
2388;SDS011;1205;47.984;7.668;2024-03-07T01:18:32;17.93;;;14.43;;
2388;SDS011;1205;47.984;7.668;2024-03-07T01:20:58;18.30;;;13.77;;
2388;SDS011;1205;47.984;7.668;2024-03-07T01:23:24;17.83;;;14.00;;
2388;SDS011;1205;47.984;7.668;2024-03-07T01:25:50;18.20;;;13.80;;
2388;SDS011;1205;47.984;7.668;2024-03-07T01:28:15;18.03;;;14.40;;
2388;SDS011;1205;47.984;7.668;2024-03-07T01:30:42;17.87;;;13.40;;
2388;SDS011;1205;47.984;7.668;2024-03-07T01:33:08;18.57;;;12.03;;
2388;SDS011;1205;47.984;7.668;2024-03-07T01:35:33;13.50;;;11.73;;
2388;SDS011;1205;47.984;7.668;2024-03-07T01:37:59;17.73;;;12.50;;
2388;SDS011;1205;47.984;7.668;2024-03-07T01:40:24;13.93;;;11.13;;
2388;SDS011;1205;47.984;7.668;2024-03-07T01:42:50;13.93;;;10.73;;
2388;SDS011;1205;47.984;7.668;2024-03-07T01:45:16;15.40;;;11.87;;
2388;SDS011;1205;47.984;7.668;2024-03-07T01:47:44;14.80;;;11.57;;
2388;SDS011;1205;47.984;7.668;2024-03-07T01:50:10;12.93;;;10.47;;
2388;SDS011;1205;47.984;7.668;2024-03-07T01:52:39;10.83;;;9.20;;
2388;SDS011;1205;47.984;7.668;2024-03-07T01:55:06;9.13;;;8.23;;
2388;SDS011;1205;47.984;7.668;2024-03-07T01:57:32;10.67;;;9.53;;
2388;SDS011;1205;47.984;7.668;2024-03-07T02:00:00;11.33;;;9.47;;
2388;SDS011;1205;47.984;7.668;2024-03-07T02:02:29;10.07;;;8.70;;
2388;SDS011;1205;47.984;7.668;2024-03-07T02:04:54;8.80;;;7.90;;
2388;SDS011;1205;47.984;7.668;2024-03-07T02:07:20;7.30;;;6.70;;
2388;SDS011;1205;47.984;7.668;2024-03-07T02:09:46;11.77;;;7.73;;
2388;SDS011;1205;47.984;7.668;2024-03-07T02:12:11;8.43;;;7.63;;
2388;SDS011;1205;47.984;7.668;2024-03-07T02:14:37;8.07;;;7.17;;
2388;SDS011;1205;47.984;7.668;2024-03-07T02:17:03;6.93;;;6.33;;
2388;SDS011;1205;47.984;7.668;2024-03-07T02:19:29;9.13;;;6.93;;
2388;SDS011;1205;47.984;7.668;2024-03-07T02:21:57;10.30;;;8.00;;
2388;SDS011;1205;47.984;7.668;2024-03-07T02:24:24;7.27;;;6.50;;
2388;SDS011;1205;47.984;7.668;2024-03-07T02:26:49;8.17;;;6.53;;
2388;SDS011;1205;47.984;7.668;2024-03-07T02:29:15;7.57;;;6.33;;
2388;SDS011;1205;47.984;7.668;2024-03-07T02:31:41;7.20;;;6.50;;
2388;SDS011;1205;47.984;7.668;2024-03-07T02:34:06;7.37;;;6.77;;
2388;SDS011;1205;47.984;7.668;2024-03-07T02:36:35;7.30;;;6.60;;
2388;SDS011;1205;47.984;7.668;2024-03-07T02:39:01;9.17;;;8.23;;
2388;SDS011;1205;47.984;7.668;2024-03-07T02:41:26;8.27;;;7.47;;
2388;SDS011;1205;47.984;7.668;2024-03-07T02:43:52;10.03;;;8.83;;
2388;SDS011;1205;47.984;7.668;2024-03-07T02:46:18;11.40;;;7.67;;
2388;SDS011;1205;47.984;7.668;2024-03-07T02:48:45;13.63;;;9.77;;
2388;SDS011;1205;47.984;7.668;2024-03-07T02:51:10;11.60;;;9.83;;
2388;SDS011;1205;47.984;7.668;2024-03-07T02:53:36;10.93;;;9.80;;
2388;SDS011;1205;47.984;7.668;2024-03-07T02:56:03;10.17;;;9.10;;
2388;SDS011;1205;47.984;7.668;2024-03-07T02:58:33;13.33;;;11.13;;
2388;SDS011;1205;47.984;7.668;2024-03-07T03:00:59;14.10;;;11.03;;
2388;SDS011;1205;47.984;7.668;2024-03-07T03:03:28;18.37;;;10.80;;
2388;SDS011;1205;47.984;7.668;2024-03-07T03:05:56;18.73;;;13.30;;
2388;SDS011;1205;47.984;7.668;2024-03-07T03:08:22;16.40;;;13.27;;
2388;SDS011;1205;47.984;7.668;2024-03-07T03:10:48;23.13;;;14.70;;
2388;SDS011;1205;47.984;7.668;2024-03-07T03:13:16;22.27;;;14.23;;
2388;SDS011;1205;47.984;7.668;2024-03-07T03:15:42;21.40;;;16.10;;
2388;SDS011;1205;47.984;7.668;2024-03-07T03:18:08;23.70;;;16.30;;
2388;SDS011;1205;47.984;7.668;2024-03-07T03:20:34;23.47;;;15.80;;
2388;SDS011;1205;47.984;7.668;2024-03-07T03:23:04;25.13;;;16.43;;
2388;SDS011;1205;47.984;7.668;2024-03-07T03:25:38;27.27;;;17.47;;
2388;SDS011;1205;47.984;7.668;2024-03-07T03:28:04;25.77;;;17.73;;
2388;SDS011;1205;47.984;7.668;2024-03-07T03:30:31;24.33;;;17.97;;
2388;SDS011;1205;47.984;7.668;2024-03-07T03:32:57;26.43;;;18.00;;
2388;SDS011;1205;47.984;7.668;2024-03-07T03:35:23;28.23;;;18.60;;
2388;SDS011;1205;47.984;7.668;2024-03-07T03:37:49;35.27;;;19.57;;
2388;SDS011;1205;47.984;7.668;2024-03-07T03:40:15;35.60;;;20.40;;
2388;SDS011;1205;47.984;7.668;2024-03-07T03:42:41;28.10;;;19.10;;
2388;SDS011;1205;47.984;7.668;2024-03-07T03:45:07;31.90;;;19.20;;
2388;SDS011;1205;47.984;7.668;2024-03-07T03:47:35;26.67;;;19.50;;
2388;SDS011;1205;47.984;7.668;2024-03-07T03:50:02;32.13;;;19.83;;
2388;SDS011;1205;47.984;7.668;2024-03-07T03:52:29;31.93;;;20.17;;
2388;SDS011;1205;47.984;7.668;2024-03-07T03:54:55;35.47;;;21.20;;
2388;SDS011;1205;47.984;7.668;2024-03-07T03:57:21;29.53;;;19.67;;
2388;SDS011;1205;47.984;7.668;2024-03-07T03:59:47;32.07;;;20.57;;
2388;SDS011;1205;47.984;7.668;2024-03-07T04:02:13;33.07;;;21.10;;
2388;SDS011;1205;47.984;7.668;2024-03-07T04:04:39;34.03;;;21.30;;
2388;SDS011;1205;47.984;7.668;2024-03-07T04:07:05;36.70;;;22.03;;
2388;SDS011;1205;47.984;7.668;2024-03-07T04:09:31;34.10;;;21.17;;
2388;SDS011;1205;47.984;7.668;2024-03-07T04:11:56;37.43;;;22.53;;
2388;SDS011;1205;47.984;7.668;2024-03-07T04:14:24;38.90;;;23.00;;
2388;SDS011;1205;47.984;7.668;2024-03-07T04:16:49;35.80;;;22.33;;
2388;SDS011;1205;47.984;7.668;2024-03-07T04:19:15;36.83;;;22.27;;
2388;SDS011;1205;47.984;7.668;2024-03-07T04:21:42;42.93;;;23.57;;
2388;SDS011;1205;47.984;7.668;2024-03-07T04:24:09;37.47;;;22.70;;
2388;SDS011;1205;47.984;7.668;2024-03-07T04:26:34;46.93;;;24.53;;
2388;SDS011;1205;47.984;7.668;2024-03-07T04:29:00;37.73;;;21.57;;
2388;SDS011;1205;47.984;7.668;2024-03-07T04:31:25;42.63;;;23.00;;
2388;SDS011;1205;47.984;7.668;2024-03-07T04:33:51;37.90;;;22.70;;
2388;SDS011;1205;47.984;7.668;2024-03-07T04:36:17;40.67;;;23.07;;
2388;SDS011;1205;47.984;7.668;2024-03-07T04:38:42;48.20;;;22.67;;
2388;SDS011;1205;47.984;7.668;2024-03-07T04:41:13;45.00;;;24.97;;
2388;SDS011;1205;47.984;7.668;2024-03-07T04:43:40;40.23;;;24.30;;
2388;SDS011;1205;47.984;7.668;2024-03-07T04:46:07;37.33;;;22.70;;
2388;SDS011;1205;47.984;7.668;2024-03-07T04:48:33;44.00;;;23.57;;
2388;SDS011;1205;47.984;7.668;2024-03-07T04:50:58;39.73;;;21.57;;
2388;SDS011;1205;47.984;7.668;2024-03-07T04:53:24;43.70;;;23.03;;
2388;SDS011;1205;47.984;7.668;2024-03-07T04:55:50;47.17;;;23.53;;
2388;SDS011;1205;47.984;7.668;2024-03-07T04:58:16;44.53;;;25.47;;
2388;SDS011;1205;47.984;7.668;2024-03-07T05:00:42;44.83;;;24.33;;
2388;SDS011;1205;47.984;7.668;2024-03-07T05:03:08;45.23;;;25.33;;
2388;SDS011;1205;47.984;7.668;2024-03-07T05:05:34;46.93;;;24.33;;
2388;SDS011;1205;47.984;7.668;2024-03-07T05:08:00;45.57;;;25.10;;
2388;SDS011;1205;47.984;7.668;2024-03-07T05:10:25;45.10;;;23.57;;
2388;SDS011;1205;47.984;7.668;2024-03-07T05:12:54;48.57;;;25.40;;
2388;SDS011;1205;47.984;7.668;2024-03-07T05:15:20;43.20;;;24.17;;
2388;SDS011;1205;47.984;7.668;2024-03-07T05:17:46;43.87;;;25.23;;
2388;SDS011;1205;47.984;7.668;2024-03-07T05:20:11;53.07;;;25.50;;
2388;SDS011;1205;47.984;7.668;2024-03-07T05:22:37;45.50;;;24.50;;
2388;SDS011;1205;47.984;7.668;2024-03-07T05:25:15;46.47;;;25.50;;
2388;SDS011;1205;47.984;7.668;2024-03-07T05:27:43;46.07;;;23.97;;
2388;SDS011;1205;47.984;7.668;2024-03-07T05:30:10;47.30;;;25.60;;
2388;SDS011;1205;47.984;7.668;2024-03-07T05:32:36;53.77;;;26.10;;
2388;SDS011;1205;47.984;7.668;2024-03-07T05:35:03;44.60;;;25.23;;
2388;SDS011;1205;47.984;7.668;2024-03-07T05:37:28;49.20;;;25.20;;
2388;SDS011;1205;47.984;7.668;2024-03-07T05:39:54;44.53;;;25.23;;
2388;SDS011;1205;47.984;7.668;2024-03-07T05:42:20;43.43;;;24.37;;
2388;SDS011;1205;47.984;7.668;2024-03-07T05:44:45;39.37;;;22.70;;
2388;SDS011;1205;47.984;7.668;2024-03-07T05:47:11;41.20;;;23.33;;
2388;SDS011;1205;47.984;7.668;2024-03-07T05:49:38;45.20;;;23.20;;
2388;SDS011;1205;47.984;7.668;2024-03-07T05:52:04;43.47;;;23.07;;
2388;SDS011;1205;47.984;7.668;2024-03-07T05:54:31;39.03;;;22.87;;
2388;SDS011;1205;47.984;7.668;2024-03-07T05:56:57;45.60;;;23.13;;
2388;SDS011;1205;47.984;7.668;2024-03-07T05:59:22;46.40;;;25.03;;
2388;SDS011;1205;47.984;7.668;2024-03-07T06:01:48;44.73;;;24.70;;
2388;SDS011;1205;47.984;7.668;2024-03-07T06:04:15;45.13;;;24.87;;
2388;SDS011;1205;47.984;7.668;2024-03-07T06:06:41;41.70;;;23.77;;
2388;SDS011;1205;47.984;7.668;2024-03-07T06:09:07;45.27;;;25.43;;
2388;SDS011;1205;47.984;7.668;2024-03-07T06:14:00;46.57;;;26.50;;
2388;SDS011;1205;47.984;7.668;2024-03-07T06:16:29;51.60;;;27.57;;
2388;SDS011;1205;47.984;7.668;2024-03-07T06:18:57;56.00;;;27.60;;
2388;SDS011;1205;47.984;7.668;2024-03-07T06:21:26;49.80;;;29.00;;
2388;SDS011;1205;47.984;7.668;2024-03-07T06:23:53;51.57;;;28.60;;
2388;SDS011;1205;47.984;7.668;2024-03-07T06:26:25;52.80;;;29.77;;
2388;SDS011;1205;47.984;7.668;2024-03-07T06:29:02;70.60;;;31.47;;
2388;SDS011;1205;47.984;7.668;2024-03-07T06:31:30;58.60;;;30.40;;
2388;SDS011;1205;47.984;7.668;2024-03-07T06:33:56;67.90;;;31.60;;
2388;SDS011;1205;47.984;7.668;2024-03-07T06:36:22;75.77;;;32.73;;
2388;SDS011;1205;47.984;7.668;2024-03-07T06:38:48;62.13;;;34.47;;
2388;SDS011;1205;47.984;7.668;2024-03-07T06:41:14;62.53;;;33.87;;
2388;SDS011;1205;47.984;7.668;2024-03-07T06:43:39;66.87;;;32.93;;
2388;SDS011;1205;47.984;7.668;2024-03-07T06:46:05;64.40;;;31.67;;
2388;SDS011;1205;47.984;7.668;2024-03-07T06:48:31;63.33;;;33.17;;
2388;SDS011;1205;47.984;7.668;2024-03-07T06:50:57;67.50;;;32.40;;
2388;SDS011;1205;47.984;7.668;2024-03-07T06:53:22;63.23;;;31.40;;
2388;SDS011;1205;47.984;7.668;2024-03-07T06:55:51;64.10;;;32.97;;
2388;SDS011;1205;47.984;7.668;2024-03-07T06:58:18;66.50;;;33.80;;
2388;SDS011;1205;47.984;7.668;2024-03-07T07:00:47;60.93;;;31.37;;
2388;SDS011;1205;47.984;7.668;2024-03-07T07:03:16;61.13;;;31.80;;
2388;SDS011;1205;47.984;7.668;2024-03-07T07:05:46;59.60;;;30.83;;
2388;SDS011;1205;47.984;7.668;2024-03-07T07:08:11;66.70;;;33.40;;
2388;SDS011;1205;47.984;7.668;2024-03-07T07:10:38;63.73;;;32.13;;
2388;SDS011;1205;47.984;7.668;2024-03-07T07:13:05;63.50;;;29.57;;
2388;SDS011;1205;47.984;7.668;2024-03-07T07:15:35;60.13;;;31.50;;
2388;SDS011;1205;47.984;7.668;2024-03-07T07:18:02;55.70;;;29.97;;
2388;SDS011;1205;47.984;7.668;2024-03-07T07:20:27;61.60;;;30.93;;
2388;SDS011;1205;47.984;7.668;2024-03-07T07:22:53;57.70;;;29.67;;
2388;SDS011;1205;47.984;7.668;2024-03-07T07:25:19;51.63;;;27.67;;
2388;SDS011;1205;47.984;7.668;2024-03-07T07:27:47;52.70;;;28.13;;
2388;SDS011;1205;47.984;7.668;2024-03-07T07:30:14;55.80;;;29.10;;
2388;SDS011;1205;47.984;7.668;2024-03-07T07:32:41;52.87;;;28.63;;
2388;SDS011;1205;47.984;7.668;2024-03-07T07:35:08;49.90;;;28.43;;
2388;SDS011;1205;47.984;7.668;2024-03-07T07:37:44;54.80;;;29.77;;
2388;SDS011;1205;47.984;7.668;2024-03-07T07:40:12;54.63;;;29.30;;
2388;SDS011;1205;47.984;7.668;2024-03-07T07:42:40;56.37;;;28.60;;
2388;SDS011;1205;47.984;7.668;2024-03-07T07:45:07;52.17;;;28.93;;
2388;SDS011;1205;47.984;7.668;2024-03-07T07:47:46;52.37;;;28.30;;
2388;SDS011;1205;47.984;7.668;2024-03-07T07:50:17;46.70;;;27.40;;
2388;SDS011;1205;47.984;7.668;2024-03-07T07:52:44;49.20;;;28.00;;
2388;SDS011;1205;47.984;7.668;2024-03-07T07:55:21;47.00;;;27.30;;
2388;SDS011;1205;47.984;7.668;2024-03-07T07:57:48;56.07;;;29.97;;
2388;SDS011;1205;47.984;7.668;2024-03-07T08:00:23;37.80;;;22.67;;
2388;SDS011;1205;47.984;7.668;2024-03-07T08:02:51;48.60;;;27.13;;
2388;SDS011;1205;47.984;7.668;2024-03-07T08:05:21;47.77;;;27.60;;
2388;SDS011;1205;47.984;7.668;2024-03-07T08:07:49;51.90;;;29.00;;
2388;SDS011;1205;47.984;7.668;2024-03-07T08:10:16;50.83;;;30.17;;
2388;SDS011;1205;47.984;7.668;2024-03-07T08:12:45;50.47;;;28.97;;
2388;SDS011;1205;47.984;7.668;2024-03-07T08:15:12;47.17;;;27.17;;
2388;SDS011;1205;47.984;7.668;2024-03-07T08:17:41;47.47;;;27.60;;
2388;SDS011;1205;47.984;7.668;2024-03-07T08:20:08;45.00;;;26.97;;
2388;SDS011;1205;47.984;7.668;2024-03-07T08:22:44;45.17;;;28.00;;
2388;SDS011;1205;47.984;7.668;2024-03-07T08:25:10;44.87;;;27.00;;
2388;SDS011;1205;47.984;7.668;2024-03-07T08:27:40;51.10;;;29.30;;
2388;SDS011;1205;47.984;7.668;2024-03-07T08:30:08;47.20;;;26.93;;
2388;SDS011;1205;47.984;7.668;2024-03-07T08:32:38;54.50;;;28.87;;
2388;SDS011;1205;47.984;7.668;2024-03-07T08:35:05;48.83;;;28.50;;
2388;SDS011;1205;47.984;7.668;2024-03-07T08:37:44;50.00;;;28.30;;
2388;SDS011;1205;47.984;7.668;2024-03-07T08:40:11;45.10;;;27.67;;
2388;SDS011;1205;47.984;7.668;2024-03-07T08:42:44;42.30;;;26.80;;
2388;SDS011;1205;47.984;7.668;2024-03-07T08:45:11;47.87;;;26.80;;
2388;SDS011;1205;47.984;7.668;2024-03-07T08:47:42;45.50;;;28.73;;
2388;SDS011;1205;47.984;7.668;2024-03-07T08:50:08;48.40;;;27.07;;
2388;SDS011;1205;47.984;7.668;2024-03-07T08:52:34;46.60;;;26.53;;
2388;SDS011;1205;47.984;7.668;2024-03-07T08:55:04;47.90;;;26.73;;
2388;SDS011;1205;47.984;7.668;2024-03-07T08:57:31;39.77;;;25.20;;
2388;SDS011;1205;47.984;7.668;2024-03-07T08:59:56;41.70;;;25.63;;
2388;SDS011;1205;47.984;7.668;2024-03-07T09:02:22;40.97;;;24.47;;
2388;SDS011;1205;47.984;7.668;2024-03-07T09:04:48;44.73;;;25.27;;
2388;SDS011;1205;47.984;7.668;2024-03-07T09:07:14;40.33;;;23.43;;
2388;SDS011;1205;47.984;7.668;2024-03-07T09:09:40;36.80;;;23.90;;
2388;SDS011;1205;47.984;7.668;2024-03-07T09:12:10;43.80;;;23.47;;
2388;SDS011;1205;47.984;7.668;2024-03-07T09:14:36;47.63;;;26.47;;
2388;SDS011;1205;47.984;7.668;2024-03-07T09:17:02;40.13;;;25.50;;
2388;SDS011;1205;47.984;7.668;2024-03-07T09:19:29;39.93;;;25.83;;
2388;SDS011;1205;47.984;7.668;2024-03-07T09:21:55;36.67;;;23.60;;
2388;SDS011;1205;47.984;7.668;2024-03-07T09:24:21;38.70;;;23.60;;
2388;SDS011;1205;47.984;7.668;2024-03-07T09:26:47;40.70;;;24.20;;
2388;SDS011;1205;47.984;7.668;2024-03-07T09:29:14;42.80;;;24.90;;
2388;SDS011;1205;47.984;7.668;2024-03-07T09:31:40;42.57;;;24.83;;
2388;SDS011;1205;47.984;7.668;2024-03-07T09:34:11;40.13;;;24.40;;
2388;SDS011;1205;47.984;7.668;2024-03-07T09:36:37;39.57;;;25.07;;
2388;SDS011;1205;47.984;7.668;2024-03-07T09:39:04;40.40;;;24.87;;
2388;SDS011;1205;47.984;7.668;2024-03-07T09:41:30;41.10;;;25.00;;
2388;SDS011;1205;47.984;7.668;2024-03-07T09:43:57;40.70;;;24.07;;
2388;SDS011;1205;47.984;7.668;2024-03-07T09:46:24;38.60;;;24.67;;
2388;SDS011;1205;47.984;7.668;2024-03-07T09:48:51;40.00;;;25.00;;
2388;SDS011;1205;47.984;7.668;2024-03-07T09:51:19;36.77;;;23.23;;
2388;SDS011;1205;47.984;7.668;2024-03-07T09:53:49;39.07;;;23.60;;
2388;SDS011;1205;47.984;7.668;2024-03-07T09:56:26;39.47;;;23.50;;
2388;SDS011;1205;47.984;7.668;2024-03-07T09:59:01;36.23;;;23.47;;
2388;SDS011;1205;47.984;7.668;2024-03-07T10:01:29;35.23;;;22.10;;
2388;SDS011;1205;47.984;7.668;2024-03-07T10:03:59;35.33;;;19.60;;
2388;SDS011;1205;47.984;7.668;2024-03-07T10:06:37;25.80;;;16.93;;
2388;SDS011;1205;47.984;7.668;2024-03-07T10:09:04;32.23;;;21.03;;
2388;SDS011;1205;47.984;7.668;2024-03-07T10:11:32;34.90;;;19.13;;
2388;SDS011;1205;47.984;7.668;2024-03-07T10:13:59;23.67;;;16.67;;
2388;SDS011;1205;47.984;7.668;2024-03-07T10:16:25;32.03;;;18.10;;
2388;SDS011;1205;47.984;7.668;2024-03-07T10:18:51;27.30;;;18.63;;
2388;SDS011;1205;47.984;7.668;2024-03-07T10:21:20;31.73;;;20.50;;
2388;SDS011;1205;47.984;7.668;2024-03-07T10:23:47;31.90;;;20.90;;
2388;SDS011;1205;47.984;7.668;2024-03-07T10:26:13;31.73;;;18.57;;
2388;SDS011;1205;47.984;7.668;2024-03-07T10:28:38;37.90;;;24.00;;
2388;SDS011;1205;47.984;7.668;2024-03-07T10:31:04;31.20;;;20.80;;
2388;SDS011;1205;47.984;7.668;2024-03-07T10:33:36;26.97;;;18.90;;
2388;SDS011;1205;47.984;7.668;2024-03-07T10:36:02;28.77;;;19.47;;
2388;SDS011;1205;47.984;7.668;2024-03-07T10:38:28;32.17;;;19.43;;
2388;SDS011;1205;47.984;7.668;2024-03-07T10:40:54;30.10;;;19.93;;
2388;SDS011;1205;47.984;7.668;2024-03-07T10:43:21;27.87;;;19.27;;
2388;SDS011;1205;47.984;7.668;2024-03-07T10:45:48;30.17;;;20.43;;
2388;SDS011;1205;47.984;7.668;2024-03-07T10:48:17;27.40;;;19.50;;
2388;SDS011;1205;47.984;7.668;2024-03-07T11:01:44;35.90;;;23.70;;
2388;SDS011;1205;47.984;7.668;2024-03-07T11:04:16;31.80;;;22.03;;
2388;SDS011;1205;47.984;7.668;2024-03-07T11:06:43;35.67;;;23.53;;
2388;SDS011;1205;47.984;7.668;2024-03-07T11:09:10;38.90;;;23.77;;
2388;SDS011;1205;47.984;7.668;2024-03-07T11:11:37;37.20;;;23.17;;
2388;SDS011;1205;47.984;7.668;2024-03-07T11:14:05;35.60;;;24.47;;
2388;SDS011;1205;47.984;7.668;2024-03-07T11:16:32;35.30;;;25.17;;
2388;SDS011;1205;47.984;7.668;2024-03-07T11:21:45;36.60;;;23.97;;
2388;SDS011;1205;47.984;7.668;2024-03-07T11:24:22;41.90;;;27.40;;
2388;SDS011;1205;47.984;7.668;2024-03-07T11:26:53;37.97;;;26.20;;
2388;SDS011;1205;47.984;7.668;2024-03-07T11:29:38;46.00;;;26.73;;
2388;SDS011;1205;47.984;7.668;2024-03-07T11:32:11;44.77;;;27.90;;
2388;SDS011;1205;47.984;7.668;2024-03-07T11:34:41;42.80;;;28.60;;
2388;SDS011;1205;47.984;7.668;2024-03-07T11:37:08;45.10;;;28.10;;
2388;SDS011;1205;47.984;7.668;2024-03-07T11:39:46;48.67;;;29.73;;
2388;SDS011;1205;47.984;7.668;2024-03-07T11:42:27;47.80;;;29.13;;
2388;SDS011;1205;47.984;7.668;2024-03-07T11:44:56;44.73;;;26.63;;
2388;SDS011;1205;47.984;7.668;2024-03-07T11:47:23;49.20;;;28.50;;
2388;SDS011;1205;47.984;7.668;2024-03-07T11:50:00;48.43;;;29.10;;
2388;SDS011;1205;47.984;7.668;2024-03-07T11:52:27;42.20;;;27.40;;
2388;SDS011;1205;47.984;7.668;2024-03-07T11:54:53;48.77;;;28.40;;
2388;SDS011;1205;47.984;7.668;2024-03-07T11:57:22;46.83;;;27.53;;
2388;SDS011;1205;47.984;7.668;2024-03-07T11:59:58;49.10;;;26.77;;
2388;SDS011;1205;47.984;7.668;2024-03-07T12:02:26;45.87;;;27.50;;
2388;SDS011;1205;47.984;7.668;2024-03-07T12:04:52;45.37;;;27.97;;
2388;SDS011;1205;47.984;7.668;2024-03-07T12:07:18;46.50;;;30.50;;
2388;SDS011;1205;47.984;7.668;2024-03-07T12:09:47;48.90;;;30.10;;
2388;SDS011;1205;47.984;7.668;2024-03-07T12:12:19;44.80;;;28.43;;
2388;SDS011;1205;47.984;7.668;2024-03-07T12:14:50;56.07;;;29.73;;
2388;SDS011;1205;47.984;7.668;2024-03-07T12:17:19;50.33;;;29.43;;
2388;SDS011;1205;47.984;7.668;2024-03-07T12:19:46;44.20;;;28.20;;
2388;SDS011;1205;47.984;7.668;2024-03-07T12:22:12;45.87;;;28.33;;
2388;SDS011;1205;47.984;7.668;2024-03-07T12:24:47;45.73;;;27.63;;
2388;SDS011;1205;47.984;7.668;2024-03-07T12:27:24;44.27;;;28.57;;
2388;SDS011;1205;47.984;7.668;2024-03-07T12:29:49;45.10;;;26.73;;
2388;SDS011;1205;47.984;7.668;2024-03-07T12:32:17;53.43;;;30.33;;
2388;SDS011;1205;47.984;7.668;2024-03-07T12:34:43;42.30;;;27.90;;
2388;SDS011;1205;47.984;7.668;2024-03-07T12:37:12;46.17;;;28.27;;
2388;SDS011;1205;47.984;7.668;2024-03-07T12:39:42;42.90;;;27.40;;
2388;SDS011;1205;47.984;7.668;2024-03-07T12:42:18;46.30;;;28.43;;
2388;SDS011;1205;47.984;7.668;2024-03-07T12:44:46;48.30;;;29.07;;
2388;SDS011;1205;47.984;7.668;2024-03-07T12:47:12;43.90;;;27.40;;
2388;SDS011;1205;47.984;7.668;2024-03-07T12:49:39;46.53;;;28.30;;
2388;SDS011;1205;47.984;7.668;2024-03-07T12:52:08;48.43;;;28.37;;
2388;SDS011;1205;47.984;7.668;2024-03-07T12:54:37;41.03;;;26.10;;
2388;SDS011;1205;47.984;7.668;2024-03-07T12:57:06;41.10;;;25.87;;
2388;SDS011;1205;47.984;7.668;2024-03-07T12:59:33;41.20;;;27.00;;
2388;SDS011;1205;47.984;7.668;2024-03-07T13:02:02;43.63;;;27.10;;
2388;SDS011;1205;47.984;7.668;2024-03-07T13:04:28;44.70;;;27.40;;
2388;SDS011;1205;47.984;7.668;2024-03-07T13:06:55;36.90;;;24.47;;
2388;SDS011;1205;47.984;7.668;2024-03-07T13:09:24;40.17;;;27.03;;
2388;SDS011;1205;47.984;7.668;2024-03-07T13:11:52;39.57;;;25.30;;
2388;SDS011;1205;47.984;7.668;2024-03-07T13:14:18;47.13;;;26.77;;
2388;SDS011;1205;47.984;7.668;2024-03-07T13:16:44;39.63;;;25.30;;
2388;SDS011;1205;47.984;7.668;2024-03-07T13:19:10;39.30;;;24.43;;
2388;SDS011;1205;47.984;7.668;2024-03-07T13:21:37;43.40;;;23.90;;
2388;SDS011;1205;47.984;7.668;2024-03-07T13:24:04;39.07;;;22.53;;
2388;SDS011;1205;47.984;7.668;2024-03-07T13:26:30;40.87;;;23.23;;
2388;SDS011;1205;47.984;7.668;2024-03-07T13:28:56;37.03;;;22.80;;
2388;SDS011;1205;47.984;7.668;2024-03-07T13:31:26;34.77;;;21.03;;
2388;SDS011;1205;47.984;7.668;2024-03-07T13:33:53;39.53;;;23.20;;
2388;SDS011;1205;47.984;7.668;2024-03-07T13:36:20;33.27;;;22.70;;
2388;SDS011;1205;47.984;7.668;2024-03-07T13:38:48;37.13;;;22.07;;
2388;SDS011;1205;47.984;7.668;2024-03-07T13:41:17;30.70;;;21.27;;
2388;SDS011;1205;47.984;7.668;2024-03-07T13:43:44;115.83;;;24.87;;
2388;SDS011;1205;47.984;7.668;2024-03-07T13:46:10;33.00;;;20.87;;
2388;SDS011;1205;47.984;7.668;2024-03-07T13:48:37;34.43;;;20.30;;
2388;SDS011;1205;47.984;7.668;2024-03-07T13:51:03;31.47;;;20.50;;
2388;SDS011;1205;47.984;7.668;2024-03-07T13:53:33;31.83;;;20.13;;
2388;SDS011;1205;47.984;7.668;2024-03-07T14:04:28;27.57;;;18.13;;
2388;SDS011;1205;47.984;7.668;2024-03-07T14:18:52;28.33;;;18.80;;
2388;SDS011;1205;47.984;7.668;2024-03-07T14:27:39;34.13;;;18.80;;
2388;SDS011;1205;47.984;7.668;2024-03-07T14:33:08;28.10;;;17.90;;
2388;SDS011;1205;47.984;7.668;2024-03-07T14:35:35;27.70;;;17.67;;
2388;SDS011;1205;47.984;7.668;2024-03-07T14:41:23;28.60;;;18.80;;
2388;SDS011;1205;47.984;7.668;2024-03-07T14:44:06;26.30;;;17.67;;
2388;SDS011;1205;47.984;7.668;2024-03-07T14:46:32;24.17;;;16.87;;
2388;SDS011;1205;47.984;7.668;2024-03-07T14:48:59;27.30;;;17.87;;
2388;SDS011;1205;47.984;7.668;2024-03-07T14:51:25;27.93;;;18.23;;
2388;SDS011;1205;47.984;7.668;2024-03-07T14:53:51;28.77;;;18.07;;
2388;SDS011;1205;47.984;7.668;2024-03-07T14:56:16;27.73;;;18.00;;
2388;SDS011;1205;47.984;7.668;2024-03-07T14:58:44;30.03;;;18.10;;
2388;SDS011;1205;47.984;7.668;2024-03-07T15:01:11;31.47;;;20.10;;
2388;SDS011;1205;47.984;7.668;2024-03-07T15:03:38;27.17;;;18.00;;
2388;SDS011;1205;47.984;7.668;2024-03-07T15:06:06;25.07;;;17.73;;
2388;SDS011;1205;47.984;7.668;2024-03-07T15:08:34;28.47;;;18.07;;
2388;SDS011;1205;47.984;7.668;2024-03-07T15:13:33;25.10;;;17.00;;
2388;SDS011;1205;47.984;7.668;2024-03-07T15:15:59;29.43;;;18.80;;
2388;SDS011;1205;47.984;7.668;2024-03-07T15:18:25;26.57;;;18.17;;
2388;SDS011;1205;47.984;7.668;2024-03-07T15:20:51;39.90;;;19.63;;
2388;SDS011;1205;47.984;7.668;2024-03-07T15:23:17;31.40;;;19.03;;
2388;SDS011;1205;47.984;7.668;2024-03-07T15:25:42;28.83;;;18.97;;
2388;SDS011;1205;47.984;7.668;2024-03-07T15:28:08;29.90;;;19.80;;
2388;SDS011;1205;47.984;7.668;2024-03-07T15:30:33;28.73;;;19.13;;
2388;SDS011;1205;47.984;7.668;2024-03-07T15:33:05;29.07;;;19.27;;
2388;SDS011;1205;47.984;7.668;2024-03-07T15:35:30;33.90;;;19.40;;
2388;SDS011;1205;47.984;7.668;2024-03-07T15:37:57;29.50;;;18.70;;
2388;SDS011;1205;47.984;7.668;2024-03-07T15:40:23;27.83;;;18.23;;
2388;SDS011;1205;47.984;7.668;2024-03-07T15:42:49;32.23;;;19.83;;